Time;durP1;ratioP1;P1;durP2;ratioP2;P2;SDS_P1;SDS_P2;PMS_P1;PMS_P2;Temp;Humidity;BMP_temperature;BMP_pressure;BME280_temperature;BME280_humidity;BME280_pressure;Samples;Min_cycle;Max_cycle;Signal;HPM_P1;HPM_P2
2023/05/02 00:00:16;;;;;;;;;;;15.10;81.10;;;;;;4997349;28;19930;-76
2023/05/02 00:02:42;;;;;;;;;;;15.10;81.10;;;;;;4999119;28;19933;-76
2023/05/02 00:05:09;;;;;;;;;;;15.10;81.20;;;;;;4996402;28;19941;-76
2023/05/02 00:07:36;;;;;;;;;;;15.00;81.20;;;;;;5002917;28;19933;-76
2023/05/02 00:10:02;;;;;;;;;;;15.00;81.20;;;;;;5002333;28;19929;-77
2023/05/02 00:12:30;;;;;;;;;;;15.00;81.40;;;;;;5001537;28;19925;-76
2023/05/02 00:14:56;;;;;;;;;;;15.00;81.40;;;;;;5004274;28;19929;-76
2023/05/02 00:17:23;;;;;;;;;;;15.00;81.50;;;;;;5000178;28;19933;-76
2023/05/02 00:19:49;;;;;;;;;;;15.00;81.60;;;;;;4997774;28;19937;-76
2023/05/02 00:22:16;;;;;;;;;;;14.90;81.70;;;;;;5002069;28;19929;-76
2023/05/02 00:24:43;;;;;;;;;;;14.90;81.80;;;;;;5000559;28;19948;-76
2023/05/02 00:27:09;;;;;;;;;;;14.90;81.90;;;;;;4994789;28;20599;-76
2023/05/02 00:29:37;;;;;;;;;;;14.90;81.90;;;;;;4995323;28;19946;-76
2023/05/02 00:32:05;;;;;;;;;;;14.90;82.00;;;;;;5005140;28;20674;-76
2023/05/02 00:34:32;;;;;;;;;;;14.80;82.00;;;;;;5002557;28;19936;-77
2023/05/02 00:36:58;;;;;;;;;;;14.80;82.10;;;;;;4998487;28;19936;-76
2023/05/02 00:39:25;;;;;;;;;;;14.80;82.10;;;;;;5001672;28;19933;-76
2023/05/02 00:41:56;;;;;;;;;;;14.80;82.10;;;;;;5001581;28;19936;-76
2023/05/02 00:44:22;;;;;;;;;;;14.80;82.20;;;;;;4997979;28;19929;-76
2023/05/02 00:46:51;;;;;;;;;;;14.80;82.20;;;;;;5003794;28;19950;-76
2023/05/02 00:49:18;;;;;;;;;;;14.70;82.20;;;;;;5003998;28;19933;-76
2023/05/02 00:51:46;;;;;;;;;;;14.80;82.30;;;;;;5000737;28;21191;-76
2023/05/02 00:54:12;;;;;;;;;;;14.70;82.40;;;;;;5003844;28;19937;-76
2023/05/02 00:56:39;;;;;;;;;;;14.70;82.50;;;;;;5004959;28;19937;-76
2023/05/02 00:59:07;;;;;;;;;;;14.70;82.60;;;;;;5004584;28;19937;-76
2023/05/02 01:01:39;;;;;;;;;;;14.70;82.60;;;;;;5003483;28;20399;-76
2023/05/02 01:04:14;;;;;;;;;;;14.60;82.60;;;;;;5006193;28;19930;-76
2023/05/02 01:06:48;;;;;;;;;;;14.60;82.70;;;;;;5003988;28;19936;-76
2023/05/02 01:09:26;;;;;;;;;;;14.60;82.70;;;;;;5000691;28;19929;-76
2023/05/02 01:11:56;;;;;;;;;;;14.60;82.70;;;;;;5004329;28;20818;-76
2023/05/02 01:14:23;;;;;;;;;;;14.60;82.80;;;;;;5002729;28;19989;-76
2023/05/02 01:16:51;;;;;;;;;;;14.60;82.90;;;;;;5004394;28;19929;-76
2023/05/02 01:19:24;;;;;;;;;;;14.50;82.80;;;;;;5004147;28;19934;-77
2023/05/02 01:21:53;;;;;;;;;;;14.50;82.90;;;;;;5002920;28;20287;-76
2023/05/02 01:24:22;;;;;;;;;;;14.50;83.70;;;;;;5002160;28;19929;-76
2023/05/02 01:26:52;;;;;;;;;;;14.50;83.10;;;;;;5005324;28;19934;-76
2023/05/02 01:29:20;;;;;;;;;;;14.40;83.20;;;;;;5006322;28;20051;-76
2023/05/02 01:31:49;;;;;;;;;;;14.50;83.30;;;;;;5005536;28;19955;-76
2023/05/02 01:34:16;;;;;;;;;;;14.40;83.30;;;;;;5006084;28;19926;-76
2023/05/02 01:36:43;;;;;;;;;;;14.40;83.30;;;;;;5002785;28;19936;-76
2023/05/02 01:39:11;;;;;;;;;;;14.30;83.30;;;;;;5004470;28;20008;-77
2023/05/02 01:41:38;;;;;;;;;;;14.30;83.30;;;;;;5001420;28;19926;-76
2023/05/02 01:44:05;;;;;;;;;;;14.30;83.30;;;;;;5001396;28;19936;-76
2023/05/02 01:46:35;;;;;;;;;;;14.30;83.40;;;;;;5003727;28;19930;-76
2023/05/02 01:49:03;;;;;;;;;;;14.30;83.40;;;;;;5005213;28;19930;-75
2023/05/02 01:51:31;;;;;;;;;;;14.30;83.40;;;;;;5002124;28;19936;-76
2023/05/02 01:53:59;;;;;;;;;;;14.30;83.50;;;;;;4998640;28;20027;-76
2023/05/02 01:56:27;;;;;;;;;;;14.20;83.50;;;;;;5005492;28;19933;-76
2023/05/02 01:58:54;;;;;;;;;;;14.20;83.40;;;;;;4999098;28;19934;-76
2023/05/02 02:01:21;;;;;;;;;;;14.20;83.50;;;;;;5005068;28;20398;-76
2023/05/02 02:03:49;;;;;;;;;;;14.10;83.40;;;;;;5003658;28;19929;-76
2023/05/02 02:06:16;;;;;;;;;;;14.10;83.50;;;;;;5006821;28;20288;-76
2023/05/02 02:08:43;;;;;;;;;;;14.10;83.50;;;;;;5012306;28;20492;-77
2023/05/02 02:11:11;;;;;;;;;;;14.10;83.50;;;;;;5010022;28;20016;-77
2023/05/02 02:13:39;;;;;;;;;;;14.10;83.60;;;;;;5002911;28;19929;-76
2023/05/02 02:16:09;;;;;;;;;;;14.00;83.60;;;;;;5003418;28;19929;-76
2023/05/02 02:18:36;;;;;;;;;;;14.00;83.60;;;;;;5003139;28;19929;-76
2023/05/02 02:21:06;;;;;;;;;;;14.00;83.70;;;;;;5003028;28;19929;-76
2023/05/02 02:23:33;;;;;;;;;;;14.00;83.70;;;;;;5002840;28;20331;-76
2023/05/02 02:26:01;;;;;;;;;;;13.90;83.70;;;;;;5006272;28;19951;-76
2023/05/02 02:28:27;;;;;;;;;;;13.90;83.70;;;;;;5003753;28;19940;-76
2023/05/02 02:30:54;;;;;;;;;;;13.90;83.70;;;;;;5002967;28;19933;-76
2023/05/02 02:33:21;;;;;;;;;;;13.90;83.80;;;;;;5003419;28;19937;-76
2023/05/02 02:35:51;;;;;;;;;;;13.90;83.80;;;;;;5005331;28;20442;-76
2023/05/02 02:38:23;;;;;;;;;;;13.80;83.80;;;;;;5000193;28;19936;-76
2023/05/02 02:40:54;;;;;;;;;;;13.80;83.80;;;;;;5005198;28;19929;-76
2023/05/02 02:43:24;;;;;;;;;;;13.80;83.90;;;;;;5000931;28;19936;-76
2023/05/02 02:45:56;;;;;;;;;;;13.70;83.90;;;;;;4999103;28;19936;-76
2023/05/02 02:48:26;;;;;;;;;;;13.70;83.90;;;;;;5001132;28;20757;-76
2023/05/02 02:50:59;;;;;;;;;;;13.70;84.00;;;;;;5000417;28;19941;-76
2023/05/02 02:53:32;;;;;;;;;;;13.70;84.00;;;;;;5008055;28;19933;-76
2023/05/02 02:56:02;;;;;;;;;;;13.70;84.10;;;;;;5004138;28;19930;-76
2023/05/02 02:58:31;;;;;;;;;;;13.70;84.10;;;;;;4999406;28;20327;-76
2023/05/02 03:01:00;;;;;;;;;;;13.60;84.10;;;;;;5004740;28;19980;-76
2023/05/02 03:03:28;;;;;;;;;;;13.60;84.20;;;;;;5001470;28;19930;-76
2023/05/02 03:05:55;;;;;;;;;;;13.60;84.20;;;;;;5003852;28;20475;-76
2023/05/02 03:08:21;;;;;;;;;;;13.60;84.20;;;;;;5002899;28;19933;-77
2023/05/02 03:10:50;;;;;;;;;;;13.60;84.30;;;;;;5005691;28;19929;-76
2023/05/02 03:13:16;;;;;;;;;;;13.50;84.30;;;;;;5002419;28;20000;-76
2023/05/02 03:16:01;;;;;;;;;;;13.50;84.30;;;;;;5005471;28;19929;-76
2023/05/02 03:18:27;;;;;;;;;;;13.50;84.30;;;;;;5000341;28;19933;-76
2023/05/02 03:20:54;;;;;;;;;;;13.50;84.30;;;;;;5001641;28;19929;-75
2023/05/02 03:23:21;;;;;;;;;;;13.50;84.30;;;;;;5000358;28;19926;-76
2023/05/02 03:25:47;;;;;;;;;;;13.40;84.30;;;;;;5002571;28;19945;-76
2023/05/02 03:28:15;;;;;;;;;;;13.40;84.30;;;;;;5002325;28;19945;-76
2023/05/02 03:30:42;;;;;;;;;;;13.40;84.40;;;;;;5005344;28;19925;-76
2023/05/02 03:33:08;;;;;;;;;;;13.40;84.40;;;;;;4998181;28;20435;-76
2023/05/02 03:35:35;;;;;;;;;;;13.40;84.40;;;;;;4998096;28;20303;-76
2023/05/02 03:38:01;;;;;;;;;;;13.30;84.40;;;;;;5001050;28;19925;-76
2023/05/02 03:40:28;;;;;;;;;;;13.30;84.40;;;;;;5000790;28;19926;-76
2023/05/02 03:42:54;;;;;;;;;;;13.30;84.40;;;;;;4998348;28;19941;-76
2023/05/02 03:45:22;;;;;;;;;;;13.30;84.50;;;;;;4999569;28;19932;-76
2023/05/02 03:47:49;;;;;;;;;;;13.20;84.50;;;;;;5002698;28;19933;-76
2023/05/02 03:50:16;;;;;;;;;;;13.20;84.50;;;;;;5002534;28;19932;-76
2023/05/02 03:52:42;;;;;;;;;;;13.20;85.20;;;;;;4999580;28;19933;-76
2023/05/02 03:55:09;;;;;;;;;;;13.20;84.60;;;;;;5003380;28;19930;-76
2023/05/02 03:57:35;;;;;;;;;;;13.20;84.60;;;;;;4996607;28;19936;-76
2023/05/02 04:00:02;;;;;;;;;;;13.10;84.60;;;;;;5003306;28;19937;-76
2023/05/02 04:02:31;;;;;;;;;;;13.20;84.70;;;;;;5000082;28;19929;-76
2023/05/02 04:04:57;;;;;;;;;;;13.10;84.60;;;;;;4999785;28;20048;-76
2023/05/02 04:07:24;;;;;;;;;;;13.10;84.60;;;;;;4998738;28;20396;-76
2023/05/02 04:09:51;;;;;;;;;;;13.10;84.70;;;;;;4998920;28;20542;-77
2023/05/02 04:12:17;;;;;;;;;;;13.10;84.70;;;;;;4998200;28;19930;-76
2023/05/02 04:14:44;;;;;;;;;;;13.00;84.60;;;;;;4999763;28;19960;-76
2023/05/02 04:17:10;;;;;;;;;;;13.00;84.70;;;;;;4999465;28;19938;-76
2023/05/02 04:19:38;;;;;;;;;;;13.00;84.70;;;;;;5002480;28;19925;-76
2023/05/02 04:22:05;;;;;;;;;;;13.00;84.70;;;;;;5001733;28;19933;-76
2023/05/02 04:24:32;;;;;;;;;;;12.90;84.70;;;;;;5003559;28;19926;-76
2023/05/02 04:26:58;;;;;;;;;;;12.90;84.80;;;;;;5000026;28;19925;-75
2023/05/02 04:29:25;;;;;;;;;;;12.90;84.80;;;;;;5001924;28;20395;-76
2023/05/02 04:31:52;;;;;;;;;;;12.80;84.80;;;;;;5000364;28;19963;-76
2023/05/02 04:34:19;;;;;;;;;;;12.80;84.90;;;;;;5002824;28;20463;-76
2023/05/02 04:36:47;;;;;;;;;;;12.80;85.00;;;;;;5004075;28;20398;-75
2023/05/02 04:39:13;;;;;;;;;;;12.80;85.00;;;;;;5003539;28;20789;-76
2023/05/02 04:41:41;;;;;;;;;;;12.80;85.10;;;;;;5002154;28;20462;-76
2023/05/02 04:44:08;;;;;;;;;;;12.80;85.20;;;;;;5002009;28;19933;-76
2023/05/02 04:46:35;;;;;;;;;;;12.70;85.20;;;;;;5005730;28;20141;-76
2023/05/02 04:49:01;;;;;;;;;;;12.70;85.20;;;;;;5000975;28;19936;-76
2023/05/02 04:51:30;;;;;;;;;;;12.70;85.30;;;;;;4998303;28;19936;-75
2023/05/02 04:53:58;;;;;;;;;;;12.70;86.10;;;;;;5000529;28;19929;-76
2023/05/02 04:56:25;;;;;;;;;;;12.70;85.40;;;;;;5009583;28;19941;-76
2023/05/02 04:58:52;;;;;;;;;;;12.70;85.40;;;;;;5007321;28;19952;-76
2023/05/02 05:01:18;;;;;;;;;;;12.60;85.40;;;;;;4999198;28;19935;-76
2023/05/02 05:03:45;;;;;;;;;;;12.60;85.50;;;;;;5000307;28;20437;-76
2023/05/02 05:06:12;;;;;;;;;;;12.70;85.60;;;;;;4998638;28;19933;-76
2023/05/02 05:08:38;;;;;;;;;;;12.60;85.60;;;;;;5004260;28;20008;-76
2023/05/02 05:11:06;;;;;;;;;;;12.60;85.60;;;;;;5005024;28;19980;-76
2023/05/02 05:13:33;;;;;;;;;;;12.60;85.70;;;;;;5002031;28;20391;-75
2023/05/02 05:15:59;;;;;;;;;;;12.50;85.90;;;;;;5000243;28;19941;-75
2023/05/02 05:18:26;;;;;;;;;;;12.50;86.20;;;;;;5001615;28;19943;-75
2023/05/02 05:20:52;;;;;;;;;;;12.50;86.50;;;;;;5004810;28;19940;-75
2023/05/02 05:23:19;;;;;;;;;;;12.40;87.40;;;;;;5010090;28;19930;-75
2023/05/02 05:25:46;;;;;;;;;;;12.40;86.80;;;;;;5004772;28;19940;-75
2023/05/02 05:28:13;;;;;;;;;;;12.40;86.90;;;;;;4998067;28;20016;-74
2023/05/02 05:30:40;;;;;;;;;;;12.40;87.00;;;;;;5001883;28;19930;-75
2023/05/02 05:33:07;;;;;;;;;;;12.40;87.10;;;;;;4996856;28;20120;-74
2023/05/02 05:35:33;;;;;;;;;;;12.40;87.00;;;;;;5006710;28;19996;-76
2023/05/02 05:38:00;;;;;;;;;;;12.40;87.00;;;;;;5001774;28;19929;-70
2023/05/02 05:40:26;;;;;;;;;;;12.40;87.10;;;;;;5012625;28;19971;-70
2023/05/02 05:42:53;;;;;;;;;;;12.40;87.80;;;;;;5011013;28;20209;-70
2023/05/02 05:45:21;;;;;;;;;;;12.40;87.10;;;;;;4993980;28;20414;-70
2023/05/02 05:47:48;;;;;;;;;;;12.40;87.10;;;;;;5002615;28;19975;-70
2023/05/02 05:50:14;;;;;;;;;;;12.30;87.00;;;;;;4999364;28;19930;-70
2023/05/02 05:52:41;;;;;;;;;;;12.40;87.00;;;;;;5004196;28;19936;-70
2023/05/02 05:55:08;;;;;;;;;;;12.40;87.10;;;;;;5011157;28;19926;-69
2023/05/02 05:57:34;;;;;;;;;;;12.40;87.10;;;;;;5001873;28;19937;-70
2023/05/02 06:00:01;;;;;;;;;;;12.40;87.10;;;;;;5001226;28;19937;-70
2023/05/02 06:02:29;;;;;;;;;;;12.30;87.00;;;;;;5005276;28;19940;-70
2023/05/02 06:04:55;;;;;;;;;;;12.40;87.10;;;;;;5001679;28;19929;-68
2023/05/02 06:07:22;;;;;;;;;;;12.30;87.10;;;;;;5001910;28;19948;-70
2023/05/02 06:09:48;;;;;;;;;;;12.30;87.10;;;;;;5006452;28;19929;-70
2023/05/02 06:12:16;;;;;;;;;;;12.30;87.10;;;;;;5004120;28;19968;-69
2023/05/02 06:14:42;;;;;;;;;;;12.30;87.10;;;;;;4999118;28;20434;-70
2023/05/02 06:17:09;;;;;;;;;;;12.40;87.20;;;;;;5006638;28;19937;-70
2023/05/02 06:19:37;;;;;;;;;;;12.30;87.20;;;;;;5011791;28;20104;-70
2023/05/02 06:22:03;;;;;;;;;;;12.40;87.20;;;;;;5005463;28;19941;-70
2023/05/02 06:24:30;;;;;;;;;;;12.30;87.20;;;;;;5007799;28;19936;-69
2023/05/02 06:26:57;;;;;;;;;;;12.30;87.20;;;;;;4998762;28;19945;-69
2023/05/02 06:29:23;;;;;;;;;;;12.30;87.20;;;;;;5000096;28;19941;-70
2023/05/02 06:31:50;;;;;;;;;;;12.30;87.10;;;;;;4998779;28;19937;-70
2023/05/02 06:34:17;;;;;;;;;;;12.30;87.10;;;;;;5009930;28;19929;-69
2023/05/02 06:36:45;;;;;;;;;;;12.30;87.10;;;;;;5001742;28;19930;-69
2023/05/02 06:39:12;;;;;;;;;;;12.30;87.10;;;;;;4993674;28;19939;-69
2023/05/02 06:41:38;;;;;;;;;;;12.40;87.20;;;;;;5004853;28;19943;-70
2023/05/02 06:44:05;;;;;;;;;;;12.40;88.00;;;;;;4996570;28;19930;-69
2023/05/02 06:46:32;;;;;;;;;;;12.40;87.20;;;;;;4988280;28;19934;-79
2023/05/02 06:48:58;;;;;;;;;;;12.40;87.40;;;;;;4989304;28;19933;-79
2023/05/02 06:51:25;;;;;;;;;;;12.40;87.30;;;;;;4990678;28;19929;-79
2023/05/02 06:53:53;;;;;;;;;;;12.40;87.40;;;;;;4991857;28;19929;-78
2023/05/02 06:56:19;;;;;;;;;;;12.40;87.40;;;;;;4996978;28;20058;-79
2023/05/02 06:58:46;;;;;;;;;;;12.40;87.50;;;;;;5004215;28;19968;-79
2023/05/02 07:01:12;;;;;;;;;;;12.40;87.70;;;;;;4995867;28;20315;-79
2023/05/02 07:03:39;;;;;;;;;;;12.40;87.60;;;;;;4994480;28;20413;-76
2023/05/02 07:06:05;;;;;;;;;;;12.40;87.70;;;;;;4997986;28;19934;-75
2023/05/02 07:08:32;;;;;;;;;;;12.40;87.70;;;;;;5003394;28;19940;-76
2023/05/02 07:11:00;;;;;;;;;;;12.40;87.70;;;;;;5002140;28;19929;-76
2023/05/02 07:13:26;;;;;;;;;;;12.40;87.70;;;;;;4996747;28;19933;-76
2023/05/02 07:15:53;;;;;;;;;;;12.50;87.80;;;;;;5000323;28;19930;-79
2023/05/02 07:18:20;;;;;;;;;;;12.50;87.80;;;;;;5000280;28;19929;-77
2023/05/02 07:20:46;;;;;;;;;;;12.50;87.90;;;;;;4994897;28;20554;-77
2023/05/02 07:23:13;;;;;;;;;;;12.50;87.90;;;;;;4999500;28;19940;-77
2023/05/02 07:25:40;;;;;;;;;;;12.50;87.90;;;;;;4985453;28;19982;-79
2023/05/02 07:28:08;;;;;;;;;;;12.50;87.90;;;;;;4990903;28;20031;-77
2023/05/02 07:30:35;;;;;;;;;;;12.50;88.00;;;;;;4995303;28;20035;-77
2023/05/02 07:33:02;;;;;;;;;;;12.50;88.10;;;;;;4997071;28;19941;-78
2023/05/02 07:35:28;;;;;;;;;;;12.60;88.30;;;;;;4979263;28;19934;-77
2023/05/02 07:37:55;;;;;;;;;;;12.50;88.30;;;;;;4992202;28;19941;-77
2023/05/02 07:40:22;;;;;;;;;;;12.50;88.40;;;;;;4988781;28;19937;-78
2023/05/02 07:42:49;;;;;;;;;;;12.60;88.50;;;;;;4986319;28;19965;-77
2023/05/02 07:45:18;;;;;;;;;;;12.60;88.60;;;;;;4993207;28;19930;-77
2023/05/02 07:47:45;;;;;;;;;;;12.60;88.60;;;;;;4985844;28;20462;-79
2023/05/02 07:50:11;;;;;;;;;;;12.60;88.60;;;;;;4990871;28;19929;-75
2023/05/02 07:52:38;;;;;;;;;;;12.70;88.70;;;;;;4991069;28;19937;-77
2023/05/02 07:55:05;;;;;;;;;;;12.70;88.70;;;;;;4992332;28;19929;-76
2023/05/02 07:57:32;;;;;;;;;;;12.70;88.70;;;;;;4985719;28;19936;-77
2023/05/02 07:59:58;;;;;;;;;;;12.70;88.70;;;;;;4996432;28;19930;-76
2023/05/02 08:02:27;;;;;;;;;;;12.80;88.70;;;;;;4992878;28;19941;-77
2023/05/02 08:04:53;;;;;;;;;;;12.80;88.80;;;;;;4992656;28;19965;-76
2023/05/02 08:07:20;;;;;;;;;;;12.80;88.70;;;;;;4994055;28;20318;-77
2023/05/02 08:09:47;;;;;;;;;;;12.80;88.80;;;;;;4997862;28;21205;-77
2023/05/02 08:12:13;;;;;;;;;;;12.90;88.80;;;;;;4987435;28;20398;-76
2023/05/02 08:14:40;;;;;;;;;;;12.90;88.90;;;;;;4987204;28;19936;-76
2023/05/02 08:17:06;;;;;;;;;;;12.90;88.80;;;;;;4986598;28;19937;-75
2023/05/02 08:19:34;;;;;;;;;;;12.90;88.70;;;;;;4991456;28;19941;-75
2023/05/02 08:22:01;;;;;;;;;;;13.00;88.70;;;;;;4992013;28;19932;-77
2023/05/02 08:24:27;;;;;;;;;;;13.00;88.70;;;;;;4993205;28;19937;-76
2023/05/02 08:26:54;;;;;;;;;;;13.00;88.60;;;;;;4996456;28;19929;-76
2023/05/02 08:29:20;;;;;;;;;;;13.10;89.40;;;;;;4986209;28;19933;-75
2023/05/02 08:31:47;;;;;;;;;;;13.10;88.60;;;;;;4987331;28;19929;-76
2023/05/02 08:34:13;;;;;;;;;;;13.10;88.50;;;;;;4992927;28;19937;-76
2023/05/02 08:36:41;;;;;;;;;;;13.20;88.60;;;;;;4994578;28;19930;-76
2023/05/02 08:39:08;;;;;;;;;;;13.20;88.60;;;;;;4989482;28;19930;-76
2023/05/02 08:41:35;;;;;;;;;;;13.20;88.50;;;;;;4994555;28;19934;-77
2023/05/02 08:44:02;;;;;;;;;;;13.20;88.90;;;;;;4979418;28;19937;-76
2023/05/02 08:46:30;;;;;;;;;;;13.30;88.50;;;;;;4988519;28;20288;-75
2023/05/02 08:48:58;;;;;;;;;;;13.30;88.30;;;;;;4994070;28;20303;-76
2023/05/02 08:51:27;;;;;;;;;;;13.30;88.20;;;;;;4995303;28;20863;-75
2023/05/02 08:53:55;;;;;;;;;;;13.40;88.10;;;;;;4991143;28;19929;-76
2023/05/02 08:56:22;;;;;;;;;;;13.40;88.00;;;;;;4995504;28;19933;-75
2023/05/02 08:58:48;;;;;;;;;;;13.40;87.80;;;;;;5000945;28;19925;-76
2023/05/02 09:01:16;;;;;;;;;;;13.40;87.70;;;;;;4995632;28;19929;-75
2023/05/02 09:03:43;;;;;;;;;;;13.50;87.60;;;;;;4994988;28;19937;-76
2023/05/02 09:06:11;;;;;;;;;;;13.50;87.40;;;;;;4985308;28;19937;-75
2023/05/02 09:08:39;;;;;;;;;;;13.50;87.30;;;;;;4995963;28;19930;-76
2023/05/02 09:11:07;;;;;;;;;;;13.60;87.30;;;;;;4999074;28;20200;-77
2023/05/02 09:13:35;;;;;;;;;;;13.60;87.10;;;;;;4996757;28;20396;-78
2023/05/02 09:16:02;;;;;;;;;;;13.70;86.70;;;;;;4996011;28;20412;-78
2023/05/02 09:18:30;;;;;;;;;;;13.80;86.60;;;;;;4989942;28;19933;-78
2023/05/02 09:20:57;;;;;;;;;;;13.80;86.50;;;;;;4998513;28;20023;-78
2023/05/02 09:23:32;;;;;;;;;;;13.80;86.20;;;;;;4989404;28;19940;-75
2023/05/02 09:25:58;;;;;;;;;;;13.80;86.00;;;;;;4992493;28;19936;-75
2023/05/02 09:28:39;;;;;;;;;;;13.90;85.30;;;;;;4990831;28;19929;-77
2023/05/02 09:31:06;;;;;;;;;;;13.90;85.20;;;;;;4997258;28;19955;-75
2023/05/02 09:33:33;;;;;;;;;;;14.00;84.90;;;;;;4991218;28;20289;-77
2023/05/02 09:36:00;;;;;;;;;;;14.00;84.80;;;;;;4992716;28;19929;-77
2023/05/02 09:38:26;;;;;;;;;;;14.10;84.80;;;;;;4992680;28;19968;-77
2023/05/02 09:40:53;;;;;;;;;;;14.20;84.90;;;;;;4997276;28;20481;-78
2023/05/02 09:43:20;;;;;;;;;;;14.30;84.60;;;;;;4995022;28;20530;-76
2023/05/02 09:45:57;;;;;;;;;;;14.30;84.30;;;;;;5002224;28;21178;-78
2023/05/02 09:48:24;;;;;;;;;;;14.30;84.10;;;;;;4993781;28;19969;-78
2023/05/02 09:50:50;;;;;;;;;;;14.30;83.80;;;;;;5001208;28;19936;-78
2023/05/02 09:53:17;;;;;;;;;;;14.40;83.80;;;;;;5001883;28;19937;-79
2023/05/02 09:55:43;;;;;;;;;;;14.40;83.70;;;;;;5009415;28;19932;-77
2023/05/02 09:58:20;;;;;;;;;;;14.50;83.50;;;;;;5009283;28;19933;-78
2023/05/02 10:00:46;;;;;;;;;;;14.50;83.40;;;;;;5003993;28;19932;-77
2023/05/02 10:03:16;;;;;;;;;;;14.50;83.40;;;;;;5000636;28;19932;-78
2023/05/02 10:05:44;;;;;;;;;;;14.60;83.20;;;;;;4999187;28;20485;-78
2023/05/02 10:08:11;;;;;;;;;;;14.60;83.00;;;;;;5003468;28;19929;-78
2023/05/02 10:10:38;;;;;;;;;;;14.60;82.90;;;;;;5004658;28;19937;-77
2023/05/02 10:13:05;;;;;;;;;;;14.70;82.90;;;;;;5004375;28;19973;-77
2023/05/02 10:15:32;;;;;;;;;;;14.70;82.90;;;;;;4999650;28;20238;-78
2023/05/02 10:17:59;;;;;;;;;;;14.70;82.70;;;;;;5011992;28;19936;-77
2023/05/02 10:20:31;;;;;;;;;;;14.80;82.50;;;;;;5007348;28;20019;-77
2023/05/02 10:22:59;;;;;;;;;;;14.80;82.30;;;;;;5006651;28;19930;-78
2023/05/02 10:25:26;;;;;;;;;;;14.80;82.20;;;;;;5008538;28;20028;-78
2023/05/02 10:27:53;;;;;;;;;;;14.90;82.10;;;;;;5010365;28;19932;-77
2023/05/02 10:30:20;;;;;;;;;;;15.00;81.80;;;;;;5008102;28;19925;-77
2023/05/02 10:32:47;;;;;;;;;;;15.00;81.80;;;;;;5011744;28;19942;-78
2023/05/02 10:35:15;;;;;;;;;;;15.10;81.60;;;;;;5010859;28;19976;-77
2023/05/02 10:37:44;;;;;;;;;;;15.10;81.40;;;;;;5011622;28;20274;-78
2023/05/02 10:40:11;;;;;;;;;;;15.10;81.50;;;;;;5008429;28;19926;-76
2023/05/02 10:42:38;;;;;;;;;;;15.10;81.50;;;;;;5007611;28;19937;-79
2023/05/02 10:45:06;;;;;;;;;;;15.10;81.20;;;;;;5000764;28;19928;-78
2023/05/02 10:47:32;;;;;;;;;;;15.20;82.00;;;;;;5004846;28;20446;-78
2023/05/02 10:50:00;;;;;;;;;;;15.20;81.10;;;;;;5006230;28;19925;-78
2023/05/02 10:52:28;;;;;;;;;;;15.20;80.60;;;;;;5000341;28;19925;-77
2023/05/02 10:55:09;;;;;;;;;;;15.30;80.20;;;;;;5010391;28;19973;-78
2023/05/02 10:57:57;;;;;;;;;;;15.30;80.30;;;;;;5002707;28;20399;-78
2023/05/02 11:00:26;;;;;;;;;;;15.40;80.20;;;;;;5010276;28;19926;-78
2023/05/02 11:02:53;;;;;;;;;;;15.40;79.70;;;;;;5005215;28;20013;-78
2023/05/02 11:05:19;;;;;;;;;;;15.40;79.60;;;;;;5005132;28;19933;-78
2023/05/02 11:07:46;;;;;;;;;;;15.50;79.20;;;;;;5004284;28;20482;-78
2023/05/02 11:10:26;;;;;;;;;;;15.50;78.90;;;;;;5006804;28;19932;-78
2023/05/02 11:12:54;;;;;;;;;;;15.60;78.70;;;;;;5005125;28;19991;-79
2023/05/02 11:15:39;;;;;;;;;;;15.60;78.70;;;;;;5005993;28;19933;-79
2023/05/02 11:18:06;;;;;;;;;;;15.60;78.80;;;;;;5003423;28;19937;-77
2023/05/02 11:20:33;;;;;;;;;;;15.60;78.70;;;;;;5005301;28;19968;-77
2023/05/02 11:23:21;;;;;;;;;;;15.60;78.80;;;;;;5005184;28;19933;-78
2023/05/02 11:25:48;;;;;;;;;;;15.70;79.00;;;;;;4987848;28;20622;-79
2023/05/02 11:28:33;;;;;;;;;;;15.70;78.80;;;;;;4983253;28;19929;-77
2023/05/02 11:31:01;;;;;;;;;;;15.70;78.60;;;;;;4985823;28;19937;-76
2023/05/02 11:33:28;;;;;;;;;;;15.70;78.60;;;;;;4985779;28;19929;-76
2023/05/02 11:35:55;;;;;;;;;;;15.70;78.60;;;;;;4992386;28;20251;-77
2023/05/02 11:38:22;;;;;;;;;;;15.80;78.30;;;;;;4992966;28;19936;-77
2023/05/02 11:40:55;;;;;;;;;;;15.80;78.40;;;;;;4994857;28;19934;-76
2023/05/02 11:43:24;;;;;;;;;;;15.80;78.20;;;;;;4993160;28;19932;-76
2023/05/02 11:45:50;;;;;;;;;;;15.80;78.10;;;;;;4987359;28;20720;-77
2023/05/02 11:48:19;;;;;;;;;;;15.90;77.90;;;;;;4989450;28;20517;-77
2023/05/02 11:50:46;;;;;;;;;;;15.90;77.80;;;;;;4993203;28;20685;-78
2023/05/02 11:53:13;;;;;;;;;;;16.00;77.60;;;;;;4988847;28;19929;-77
2023/05/02 11:55:50;;;;;;;;;;;16.10;77.50;;;;;;4992325;28;20497;-77
2023/05/02 11:58:17;;;;;;;;;;;16.10;77.00;;;;;;4995435;28;19933;-78
2023/05/02 12:00:47;;;;;;;;;;;16.20;76.60;;;;;;4996124;28;19929;-77
2023/05/02 12:03:22;;;;;;;;;;;16.20;76.20;;;;;;4997823;28;20777;-77
2023/05/02 12:05:49;;;;;;;;;;;16.30;75.80;;;;;;4995350;28;19940;-77
2023/05/02 12:08:19;;;;;;;;;;;16.40;75.70;;;;;;4993733;28;20246;-78
2023/05/02 12:10:46;;;;;;;;;;;16.50;75.20;;;;;;4994089;28;20657;-76
2023/05/02 12:13:13;;;;;;;;;;;16.50;74.00;;;;;;4991236;28;19930;-77
2023/05/02 12:15:39;;;;;;;;;;;16.60;73.90;;;;;;4998902;28;19929;-78
2023/05/02 12:18:06;;;;;;;;;;;16.70;73.80;;;;;;4986262;28;19933;-76
2023/05/02 12:20:34;;;;;;;;;;;16.80;73.40;;;;;;4991336;28;19979;-76
2023/05/02 12:23:01;;;;;;;;;;;16.80;73.60;;;;;;4995863;28;19937;-76
2023/05/02 12:25:27;;;;;;;;;;;16.90;73.00;;;;;;4988987;28;19941;-77
2023/05/02 12:28:00;;;;;;;;;;;17.00;72.50;;;;;;4987766;28;19935;-78
2023/05/02 12:30:27;;;;;;;;;;;17.00;72.20;;;;;;4992268;28;19942;-78
2023/05/02 12:32:56;;;;;;;;;;;17.10;71.80;;;;;;4995672;28;19933;-77
2023/05/02 12:35:22;;;;;;;;;;;17.10;72.00;;;;;;4990737;28;19973;-77
2023/05/02 12:37:50;;;;;;;;;;;17.20;71.90;;;;;;4995078;28;19934;-77
2023/05/02 12:40:17;;;;;;;;;;;17.20;71.50;;;;;;4999080;28;19934;-76
2023/05/02 12:42:57;;;;;;;;;;;17.30;71.40;;;;;;4995551;28;20051;-77
2023/05/02 12:45:24;;;;;;;;;;;17.30;70.70;;;;;;5001392;28;19941;-76
2023/05/02 12:47:51;;;;;;;;;;;17.30;70.70;;;;;;4989819;28;20036;-77
2023/05/02 12:50:17;;;;;;;;;;;17.40;70.70;;;;;;4998765;28;20017;-78
2023/05/02 12:52:48;;;;;;;;;;;17.40;70.10;;;;;;4998192;28;19925;-76
2023/05/02 12:55:19;;;;;;;;;;;17.50;70.10;;;;;;4997564;28;19929;-77
2023/05/02 12:57:45;;;;;;;;;;;17.60;69.90;;;;;;5000393;28;19936;-70
2023/05/02 13:00:13;;;;;;;;;;;17.60;69.70;;;;;;5002010;28;19936;-71
2023/05/02 13:02:39;;;;;;;;;;;17.60;69.50;;;;;;5001530;28;19929;-72
2023/05/02 13:05:13;;;;;;;;;;;17.70;69.50;;;;;;5004807;28;19933;-71
2023/05/02 13:07:40;;;;;;;;;;;17.70;69.70;;;;;;5008660;28;19936;-71
2023/05/02 13:10:07;;;;;;;;;;;17.70;69.50;;;;;;5005298;28;19977;-71
2023/05/02 13:12:37;;;;;;;;;;;17.80;69.30;;;;;;4998365;28;19933;-71
2023/05/02 13:15:04;;;;;;;;;;;17.80;69.40;;;;;;5000297;28;19941;-71
2023/05/02 13:17:30;;;;;;;;;;;17.90;69.10;;;;;;5001973;28;19937;-71
2023/05/02 13:19:57;;;;;;;;;;;17.90;68.20;;;;;;5002431;28;19933;-71
2023/05/02 13:22:24;;;;;;;;;;;18.00;68.10;;;;;;5002762;28;19934;-78
2023/05/02 13:24:50;;;;;;;;;;;18.00;67.70;;;;;;4998598;28;19929;-78
2023/05/02 13:27:17;;;;;;;;;;;18.10;67.30;;;;;;4997189;28;19941;-76
2023/05/02 13:29:45;;;;;;;;;;;18.10;66.00;;;;;;5003356;28;20119;-76
2023/05/02 13:32:12;;;;;;;;;;;18.20;66.10;;;;;;5003845;28;19930;-76
2023/05/02 13:34:38;;;;;;;;;;;18.20;67.00;;;;;;4994019;28;19933;-76
2023/05/02 13:37:05;;;;;;;;;;;18.30;65.90;;;;;;5002367;28;19936;-76
2023/05/02 13:39:31;;;;;;;;;;;18.30;65.70;;;;;;5002896;28;19933;-76
2023/05/02 13:41:58;;;;;;;;;;;18.40;66.10;;;;;;4999716;28;19936;-76
2023/05/02 13:44:24;;;;;;;;;;;18.40;65.10;;;;;;4998878;28;19930;-77
2023/05/02 13:46:52;;;;;;;;;;;18.50;66.00;;;;;;4994916;28;19936;-75
2023/05/02 13:49:19;;;;;;;;;;;18.50;65.50;;;;;;4995200;28;19929;-75
2023/05/02 13:51:45;;;;;;;;;;;18.50;66.00;;;;;;4996006;28;19975;-77
2023/05/02 13:54:12;;;;;;;;;;;18.60;65.20;;;;;;4996427;28;19930;-77
2023/05/02 13:56:39;;;;;;;;;;;18.60;64.60;;;;;;5000894;28;19936;-76
2023/05/02 13:59:06;;;;;;;;;;;18.60;64.90;;;;;;4996339;28;19929;-76
2023/05/02 14:01:32;;;;;;;;;;;18.70;63.60;;;;;;4988240;28;20690;-77
2023/05/02 14:04:05;;;;;;;;;;;18.60;62.70;;;;;;5003982;28;19936;-76
2023/05/02 14:06:32;;;;;;;;;;;18.70;65.10;;;;;;4999246;28;19930;-75
2023/05/02 14:08:58;;;;;;;;;;;18.80;63.90;;;;;;5002838;28;19952;-77
2023/05/02 14:11:25;;;;;;;;;;;18.80;63.20;;;;;;4997687;28;19936;-77
2023/05/02 14:13:52;;;;;;;;;;;18.80;62.80;;;;;;4998012;28;20058;-77
2023/05/02 14:16:19;;;;;;;;;;;18.80;62.80;;;;;;4998470;28;20024;-76
2023/05/02 14:18:45;;;;;;;;;;;18.90;63.70;;;;;;4996116;28;19941;-76